Time;durP1;ratioP1;P1;durP2;ratioP2;P2;SDS_P1;SDS_P2;PMS_P1;PMS_P2;Temp;Humidity;BMP_temperature;BMP_pressure;BME280_temperature;BME280_humidity;BME280_pressure;Samples;Min_cycle;Max_cycle;Signal;HPM_P1;HPM_P2
2023/09/07 00:00:50;;;;;;;4.18;3.70;;;24.10;99.90;;;;;;6081521;23;20021;-90
2023/09/07 00:03:15;;;;;;;6.85;4.20;;;24.00;99.90;;;;;;6105396;23;20335;-90
2023/09/07 00:05:41;;;;;;;6.10;4.20;;;24.00;99.90;;;;;;6058419;23;20013;-92
2023/09/07 00:08:07;;;;;;;5.30;4.20;;;23.90;99.90;;;;;;6105278;23;20006;-92
2023/09/07 00:10:36;;;;;;;5.72;3.78;;;23.90;99.90;;;;;;6081784;23;20013;-91
2023/09/07 00:13:03;;;;;;;5.88;3.95;;;23.90;99.90;;;;;;6129781;23;20018;-90
2023/09/07 00:15:30;;;;;;;5.85;3.85;;;23.90;99.90;;;;;;6081501;23;20021;-90
2023/09/07 00:17:56;;;;;;;4.78;4.05;;;23.80;99.90;;;;;;6104745;23;20014;-91
2023/09/07 00:20:23;;;;;;;4.97;3.85;;;23.80;99.90;;;;;;6104864;23;20039;-89
2023/09/07 00:22:49;;;;;;;4.47;4.00;;;23.70;99.90;;;;;;6082725;23;20020;-90
2023/09/07 00:25:15;;;;;;;4.47;4.07;;;23.70;99.90;;;;;;6081490;23;20049;-90
2023/09/07 00:27:41;;;;;;;4.88;4.38;;;23.60;99.90;;;;;;6082475;23;20039;-90
2023/09/07 00:30:09;;;;;;;4.50;4.10;;;23.60;99.90;;;;;;6081631;23;20100;-90
2023/09/07 00:32:37;;;;;;;8.20;4.40;;;23.60;99.90;;;;;;6105206;23;20060;-90
2023/09/07 00:35:04;;;;;;;6.40;4.70;;;23.50;99.90;;;;;;6129725;23;20104;-91
2023/09/07 00:37:30;;;;;;;6.53;4.45;;;23.40;99.90;;;;;;6129839;23;20118;-91
2023/09/07 00:39:57;;;;;;;5.18;4.63;;;23.40;99.90;;;;;;6055863;23;20470;-90
2023/09/07 00:42:22;;;;;;;4.80;4.38;;;23.30;99.90;;;;;;6101451;23;20141;-90
2023/09/07 00:44:48;;;;;;;5.07;4.57;;;23.20;99.90;;;;;;6105325;23;20040;-90
2023/09/07 00:47:15;;;;;;;5.90;4.90;;;23.20;99.90;;;;;;6104871;23;20462;-91
2023/09/07 00:49:41;;;;;;;4.30;3.90;;;23.10;99.90;;;;;;6105140;23;20089;-92
2023/09/07 00:52:13;;;;;;;4.85;4.40;;;22.80;99.90;;;;;;6105348;23;20017;-90
2023/09/07 00:54:40;;;;;;;4.70;4.00;;;22.50;99.90;;;;;;6105101;23;20053;-92
2023/09/07 00:57:06;;;;;;;4.20;3.90;;;22.20;99.90;;;;;;6105713;23;20013;-91
2023/09/07 00:59:33;;;;;;;4.90;3.63;;;21.90;99.90;;;;;;6056800;23;20018;-91
2023/09/07 01:02:05;;;;;;;8.75;4.07;;;21.70;99.90;;;;;;6104930;23;20013;-90
2023/09/07 01:04:31;;;;;;;5.32;4.10;;;21.40;99.90;;;;;;6105115;23;20013;-90
2023/09/07 01:07:03;;;;;;;4.78;4.28;;;21.30;99.90;;;;;;6104284;23;20018;-91
2023/09/07 01:09:32;;;;;;;5.13;4.10;;;21.20;99.90;;;;;;6104688;23;20028;-89
2023/09/07 01:11:57;;;;;;;4.78;4.38;;;21.10;99.90;;;;;;6104180;23;20105;-89
2023/09/07 01:14:23;;;;;;;5.38;4.32;;;21.00;99.90;;;;;;6103628;23;20049;-90
2023/09/07 01:16:50;;;;;;;5.18;4.68;;;20.90;99.90;;;;;;6104613;23;20442;-91
2023/09/07 01:19:16;;;;;;;5.47;4.60;;;20.90;99.90;;;;;;6104984;23;20017;-91
2023/09/07 01:21:43;;;;;;;7.05;4.68;;;20.90;99.90;;;;;;6056157;23;20013;-90
2023/09/07 01:24:10;;;;;;;4.57;4.15;;;20.90;99.90;;;;;;6081018;23;20261;-90
2023/09/07 01:26:39;;;;;;;4.80;4.35;;;20.90;99.90;;;;;;6103944;23;20013;-90
2023/09/07 01:29:08;;;;;;;5.80;4.55;;;20.10;99.90;;;;;;6104770;23;20045;-90
2023/09/07 01:31:36;;;;;;;6.65;4.78;;;20.60;99.90;;;;;;6103724;23;20049;-89
2023/09/07 01:34:02;;;;;;;6.20;4.70;;;20.60;99.90;;;;;;6128586;23;20660;-91
2023/09/07 01:36:29;;;;;;;5.18;4.68;;;20.60;99.90;;;;;;6057180;23;20072;-91
2023/09/07 01:38:54;;;;;;;5.60;4.90;;;20.60;99.90;;;;;;6104562;23;20010;-90
2023/09/07 01:41:20;;;;;;;5.30;4.80;;;20.60;99.90;;;;;;6104614;23;20045;-89
2023/09/07 01:43:46;;;;;;;5.05;4.60;;;20.60;99.90;;;;;;6080321;23;20014;-91
2023/09/07 01:46:11;;;;;;;11.82;5.43;;;20.60;99.90;;;;;;6104891;23;20141;-89
2023/09/07 01:48:37;;;;;;;5.68;5.18;;;20.70;99.90;;;;;;6055875;23;20049;-91
2023/09/07 01:51:03;;;;;;;5.82;5.22;;;20.60;99.90;;;;;;6080511;23;20025;-91
2023/09/07 01:53:28;;;;;;;6.63;5.13;;;20.60;99.90;;;;;;6080737;23;20722;-91
2023/09/07 01:55:55;;;;;;;7.15;4.95;;;20.60;99.90;;;;;;6057250;23;20738;-90
2023/09/07 01:58:23;;;;;;;6.80;4.78;;;20.50;99.90;;;;;;6104357;23;20019;-90
2023/09/07 02:00:49;;;;;;;5.63;4.95;;;20.50;99.90;;;;;;6104922;23;20017;-91
2023/09/07 02:03:18;;;;;;;5.60;5.10;;;20.50;99.90;;;;;;6083097;23;20327;-90
2023/09/07 02:05:47;;;;;;;5.47;4.45;;;20.50;99.90;;;;;;6086579;23;20013;-91
2023/09/07 02:08:16;;;;;;;5.43;4.93;;;20.40;99.90;;;;;;6111090;23;20061;-90
2023/09/07 02:10:44;;;;;;;10.55;5.18;;;20.30;99.90;;;;;;6083176;23;20017;-89
2023/09/07 02:13:11;;;;;;;6.80;4.80;;;20.40;99.90;;;;;;6081376;23;20018;-91
2023/09/07 02:15:40;;;;;;;5.18;4.68;;;20.40;99.90;;;;;;6057197;23;20485;-91
2023/09/07 02:18:06;;;;;;;5.25;4.50;;;20.30;99.90;;;;;;6079724;23;20320;-91
2023/09/07 02:20:33;;;;;;;6.72;4.95;;;20.30;99.90;;;;;;6103726;23;20567;-91
2023/09/07 02:22:59;;;;;;;7.45;5.95;;;20.30;99.90;;;;;;6104786;23;20539;-93
2023/09/07 02:25:25;;;;;;;6.03;4.68;;;20.30;99.90;;;;;;6079518;23;20096;-90
2023/09/07 02:27:51;;;;;;;5.45;4.78;;;20.20;99.90;;;;;;6080691;23;20068;-91
2023/09/07 02:30:17;;;;;;;5.90;5.30;;;20.20;99.90;;;;;;6081314;23;20320;-91
2023/09/07 02:32:43;;;;;;;5.00;4.50;;;20.10;99.90;;;;;;6103969;23;20021;-90
2023/09/07 02:35:09;;;;;;;9.65;5.82;;;20.00;99.90;;;;;;6105065;23;20014;-91
2023/09/07 02:37:38;;;;;;;4.70;4.30;;;19.90;99.90;;;;;;6104343;23;20017;-92
2023/09/07 02:40:08;;;;;;;6.78;4.57;;;19.80;99.90;;;;;;6080551;23;20016;-91
2023/09/07 02:42:34;;;;;;;7.10;4.82;;;19.70;99.90;;;;;;6080995;23;20068;-91
2023/09/07 02:45:00;;;;;;;5.00;4.60;;;19.70;99.90;;;;;;6104621;23;20018;-91
2023/09/07 02:47:25;;;;;;;5.53;5.03;;;19.60;99.90;;;;;;6104039;23;20072;-90
2023/09/07 02:49:51;;;;;;;6.53;4.80;;;19.70;99.90;;;;;;6057191;23;20014;-91
2023/09/07 02:52:17;;;;;;;5.20;4.70;;;19.70;99.90;;;;;;6080406;23;20017;-90
2023/09/07 02:54:42;;;;;;;5.88;5.38;;;19.70;99.90;;;;;;6104379;23;20017;-91
2023/09/07 02:57:08;;;;;;;7.35;5.53;;;19.70;99.90;;;;;;6104104;23;20018;-90
2023/09/07 02:59:37;;;;;;;6.30;5.05;;;19.70;99.90;;;;;;6079859;23;20668;-90
2023/09/07 03:02:03;;;;;;;8.13;5.85;;;19.70;99.90;;;;;;6105095;23;20032;-91
2023/09/07 03:04:29;;;;;;;5.15;4.65;;;19.80;99.90;;;;;;6056247;23;20550;-91
2023/09/07 03:06:54;;;;;;;5.45;4.45;;;19.70;99.90;;;;;;6104466;23;20010;-90
2023/09/07 03:09:20;;;;;;;6.10;5.50;;;19.50;99.90;;;;;;6104699;23;20052;-92
2023/09/07 03:11:49;;;;;;;5.93;5.43;;;19.40;99.90;;;;;;6104748;23;20021;-91
2023/09/07 03:14:14;;;;;;;5.90;5.38;;;18.70;99.90;;;;;;6057213;23;20021;-91
2023/09/07 03:16:40;;;;;;;7.03;5.15;;;19.30;99.90;;;;;;6104331;23;20041;-91
2023/09/07 03:19:06;;;;;;;6.75;6.15;;;19.30;99.90;;;;;;6057611;23;20018;-91
2023/09/07 03:21:32;;;;;;;6.68;6.07;;;19.30;99.90;;;;;;6082143;23;20093;-91
2023/09/07 03:23:58;;;;;;;9.27;6.20;;;19.30;99.90;;;;;;6105915;23;20009;-91
2023/09/07 03:26:24;;;;;;;6.85;6.15;;;19.20;99.90;;;;;;6130054;23;20396;-88
2023/09/07 03:28:50;;;;;;;7.55;5.90;;;19.10;99.90;;;;;;6081795;23;20632;-91
2023/09/07 03:31:16;;;;;;;6.15;5.55;;;18.80;99.90;;;;;;6082507;23;20025;-91
2023/09/07 03:33:41;;;;;;;6.43;5.68;;;18.70;99.90;;;;;;6081228;23;20017;-91
2023/09/07 03:36:09;;;;;;;6.05;5.45;;;18.60;99.90;;;;;;6106581;23;20017;-91
2023/09/07 03:38:37;;;;;;;6.93;6.22;;;18.60;99.90;;;;;;6082987;23;20018;-91
2023/09/07 03:41:03;;;;;;;5.72;5.13;;;18.40;99.90;;;;;;6083209;23;20045;-90
2023/09/07 03:43:32;;;;;;;5.80;5.30;;;18.40;99.90;;;;;;6083088;23;20024;-92
2023/09/07 03:45:58;;;;;;;9.10;5.80;;;18.50;99.90;;;;;;6080676;23;20013;-91
2023/09/07 03:48:24;;;;;;;6.63;5.78;;;18.50;99.90;;;;;;6103386;23;20060;-90
2023/09/07 03:50:49;;;;;;;5.72;5.22;;;18.50;99.90;;;;;;6081336;23;20028;-91
2023/09/07 03:53:16;;;;;;;6.60;5.97;;;18.50;99.90;;;;;;6104466;23;20013;-90
2023/09/07 03:55:42;;;;;;;6.57;5.97;;;18.60;99.90;;;;;;6058825;23;20096;-91
2023/09/07 03:58:11;;;;;;;7.40;6.63;;;18.60;99.90;;;;;;6105704;23;20068;-92
2023/09/07 04:00:41;;;;;;;8.40;7.25;;;18.70;99.90;;;;;;6105507;23;20025;-90
2023/09/07 04:03:10;;;;;;;8.20;7.40;;;18.80;99.90;;;;;;6105871;23;20006;-90
2023/09/07 04:05:39;;;;;;;8.35;7.63;;;19.10;99.90;;;;;;6105606;23;20029;-91
2023/09/07 04:08:05;;;;;;;9.55;8.27;;;19.40;99.90;;;;;;6082100;23;20049;-91
2023/09/07 04:10:31;;;;;;;8.40;7.32;;;19.40;99.90;;;;;;6105284;23;20100;-92
2023/09/07 04:12:56;;;;;;;9.57;8.60;;;19.60;99.90;;;;;;6106186;23;20046;-90
2023/09/07 04:15:22;;;;;;;8.85;7.22;;;19.70;99.90;;;;;;6105524;23;20064;-92
2023/09/07 04:17:49;;;;;;;10.25;8.25;;;19.80;99.90;;;;;;6130274;23;20470;-90
2023/09/07 04:20:15;;;;;;;8.45;7.65;;;19.80;99.90;;;;;;6082106;23;20014;-90
2023/09/07 04:22:41;;;;;;;8.43;7.63;;;19.90;99.90;;;;;;6081538;23;20068;-90
2023/09/07 04:25:07;;;;;;;10.55;7.78;;;19.90;99.90;;;;;;6105141;23;20010;-90
2023/09/07 04:27:32;;;;;;;9.90;7.72;;;19.90;99.90;;;;;;6081790;23;20020;-93
2023/09/07 04:29:58;;;;;;;9.30;8.40;;;20.00;99.90;;;;;;6107366;23;20013;-90
2023/09/07 04:32:24;;;;;;;8.52;7.57;;;20.00;99.90;;;;;;6084696;23;20027;-89
2023/09/07 04:34:55;;;;;;;11.52;8.07;;;20.00;99.90;;;;;;6107218;23;20018;-92
2023/09/07 04:37:20;;;;;;;8.38;7.57;;;20.00;99.90;;;;;;6129697;23;20021;-90
2023/09/07 04:39:47;;;;;;;8.13;7.35;;;20.00;99.90;;;;;;6105026;23;20022;-90
2023/09/07 04:42:13;;;;;;;8.45;7.65;;;20.00;99.90;;;;;;6105599;23;20020;-89
2023/09/07 04:44:39;;;;;;;12.52;7.97;;;20.00;99.90;;;;;;6105484;23;20017;-90
2023/09/07 04:47:04;;;;;;;8.63;7.82;;;20.00;99.90;;;;;;6057726;23;20014;-90
2023/09/07 04:49:30;;;;;;;7.97;7.18;;;20.10;99.90;;;;;;6105444;23;20018;-91
2023/09/07 04:51:57;;;;;;;8.77;7.85;;;20.00;99.90;;;;;;6129227;23;20044;-90
2023/09/07 04:54:23;;;;;;;8.82;7.90;;;20.00;99.90;;;;;;6081294;23;20447;-90
2023/09/07 04:56:50;;;;;;;8.93;7.95;;;20.10;99.90;;;;;;6104925;23;20017;-92
2023/09/07 04:59:15;;;;;;;9.70;8.02;;;20.00;99.90;;;;;;6081799;23;20025;-91
2023/09/07 05:01:41;;;;;;;8.65;7.78;;;20.10;99.90;;;;;;6104594;23;20050;-91
2023/09/07 05:04:07;;;;;;;8.82;7.82;;;20.00;99.90;;;;;;6106056;23;20502;-91
2023/09/07 05:06:36;;;;;;;9.02;8.18;;;20.00;99.90;;;;;;6080766;23;20947;-89
2023/09/07 05:09:03;;;;;;;8.35;7.57;;;20.00;99.90;;;;;;6058974;23;20013;-92
2023/09/07 05:11:29;;;;;;;8.80;7.80;;;20.00;99.90;;;;;;6057771;23;20013;-91
2023/09/07 05:13:55;;;;;;;9.23;8.15;;;20.10;99.90;;;;;;6104453;23;20379;-91
2023/09/07 05:16:23;;;;;;;10.85;8.07;;;20.10;99.90;;;;;;6129114;23;20016;-90
2023/09/07 05:18:53;;;;;;;9.00;8.20;;;20.00;99.90;;;;;;6080602;23;20020;-89
2023/09/07 05:21:19;;;;;;;8.32;7.53;;;20.10;99.90;;;;;;6081171;23;20021;-89
2023/09/07 05:23:44;;;;;;;8.90;7.97;;;20.10;99.90;;;;;;6128988;23;20072;-90
2023/09/07 05:26:10;;;;;;;9.23;8.23;;;20.10;99.90;;;;;;6105670;23;20096;-91
2023/09/07 05:28:40;;;;;;;8.23;7.45;;;20.10;99.90;;;;;;6104153;23;20017;-89
2023/09/07 05:31:06;;;;;;;10.48;8.18;;;20.10;99.90;;;;;;6104016;23;20024;-91
2023/09/07 05:33:31;;;;;;;9.30;8.32;;;20.10;99.90;;;;;;6057465;23;20025;-91
2023/09/07 05:35:57;;;;;;;9.27;8.27;;;20.20;99.90;;;;;;6079382;23;20040;-91
2023/09/07 05:38:23;;;;;;;9.27;8.02;;;20.20;99.90;;;;;;6104592;23;20020;-91
2023/09/07 05:40:53;;;;;;;9.57;8.50;;;20.30;99.90;;;;;;6055902;23;20018;-89
2023/09/07 05:43:20;;;;;;;9.95;8.50;;;20.30;99.90;;;;;;6082557;23;20017;-90
2023/09/07 05:45:45;;;;;;;8.98;7.65;;;20.40;99.90;;;;;;6105264;23;20013;-90
2023/09/07 05:48:11;;;;;;;9.40;8.50;;;20.50;99.90;;;;;;6081447;23;20049;-91
2023/09/07 05:50:41;;;;;;;8.80;7.88;;;20.50;99.90;;;;;;6104864;23;20021;-91
2023/09/07 05:53:07;;;;;;;9.52;8.63;;;20.60;99.90;;;;;;6081005;23;20028;-89
2023/09/07 05:55:32;;;;;;;11.10;8.60;;;20.60;99.90;;;;;;6080375;23;20021;-90
2023/09/07 05:57:59;;;;;;;9.32;8.40;;;20.60;99.90;;;;;;6080921;23;20607;-91
2023/09/07 06:00:25;;;;;;;9.00;8.10;;;20.70;99.90;;;;;;6103356;23;20013;-90
2023/09/07 06:02:51;;;;;;;9.00;8.10;;;20.70;99.90;;;;;;6105138;23;20013;-91
2023/09/07 06:05:17;;;;;;;9.52;8.52;;;20.80;99.90;;;;;;6105056;23;20497;-90
2023/09/07 06:07:44;;;;;;;9.07;8.18;;;20.80;99.90;;;;;;6080707;23;20013;-91
2023/09/07 06:10:11;;;;;;;9.50;8.60;;;20.90;99.90;;;;;;6105359;23;20049;-90
2023/09/07 06:12:37;;;;;;;10.35;8.60;;;21.00;99.90;;;;;;6105969;23;20013;-90
2023/09/07 06:15:03;;;;;;;9.68;8.77;;;21.00;99.90;;;;;;6104675;23;20052;-91
2023/09/07 06:17:29;;;;;;;10.00;8.50;;;21.10;99.90;;;;;;6081031;23;20080;-90
2023/09/07 06:19:55;;;;;;;9.23;8.30;;;21.20;99.90;;;;;;6103637;23;20096;-90
2023/09/07 06:22:21;;;;;;;9.05;8.15;;;21.20;99.90;;;;;;6080639;23;20029;-90
2023/09/07 06:24:47;;;;;;;11.20;8.25;;;21.30;99.90;;;;;;6055637;23;20320;-90
2023/09/07 06:27:13;;;;;;;10.00;8.77;;;21.40;99.90;;;;;;6080995;23;20013;-91
2023/09/07 06:29:39;;;;;;;9.52;8.07;;;21.50;99.90;;;;;;6079660;23;20100;-90
2023/09/07 06:32:04;;;;;;;9.18;8.32;;;21.50;99.90;;;;;;6103998;23;20017;-90
2023/09/07 06:34:31;;;;;;;9.25;8.32;;;21.50;99.90;;;;;;6080860;23;20022;-89
2023/09/07 06:36:57;;;;;;;10.38;7.90;;;21.70;99.90;;;;;;6080905;23;20323;-90
2023/09/07 06:39:23;;;;;;;13.48;8.60;;;21.70;99.90;;;;;;6104461;23;20021;-89
2023/09/07 06:41:48;;;;;;;11.95;8.77;;;21.80;99.90;;;;;;6080559;23;20014;-90
2023/09/07 06:44:15;;;;;;;8.55;7.55;;;21.80;99.90;;;;;;6080494;23;20028;-90
2023/09/07 06:46:41;;;;;;;8.93;8.13;;;21.90;99.90;;;;;;6104661;23;20080;-89
2023/09/07 06:49:07;;;;;;;8.07;7.28;;;22.00;99.90;;;;;;6076296;23;20014;-90
2023/09/07 06:51:34;;;;;;;9.35;8.32;;;22.10;99.90;;;;;;6054982;23;20005;-90
2023/09/07 06:53:59;;;;;;;10.63;7.88;;;22.20;99.90;;;;;;6081656;23;20101;-89
2023/09/07 06:56:26;;;;;;;8.95;8.15;;;22.20;99.90;;;;;;6106659;23;20061;-90
2023/09/07 06:58:52;;;;;;;8.68;7.88;;;22.30;99.90;;;;;;6082547;23;20009;-90
2023/09/07 07:01:21;;;;;;;10.13;7.95;;;22.30;99.90;;;;;;6107662;23;20097;-90
2023/09/07 07:03:47;;;;;;;9.48;8.48;;;22.50;99.90;;;;;;6106515;23;20526;-90
2023/09/07 07:06:12;;;;;;;8.98;7.97;;;22.50;99.90;;;;;;6106728;23;20009;-90
2023/09/07 07:08:38;;;;;;;8.50;7.60;;;22.60;99.90;;;;;;6058399;23;20017;-91
2023/09/07 07:11:04;;;;;;;9.40;8.40;;;22.70;99.90;;;;;;6058678;23;20017;-90
2023/09/07 07:13:30;;;;;;;8.50;7.65;;;22.70;99.90;;;;;;6106467;23;20033;-91
2023/09/07 07:15:57;;;;;;;8.77;7.97;;;22.80;99.90;;;;;;6058610;23;20096;-91
2023/09/07 07:18:24;;;;;;;11.30;7.95;;;22.90;99.90;;;;;;6059416;23;20096;-91
2023/09/07 07:20:50;;;;;;;8.98;8.07;;;23.00;99.90;;;;;;6082242;23;20024;-92
2023/09/07 07:23:16;;;;;;;8.52;7.60;;;23.10;99.90;;;;;;6083069;23;20120;-90
2023/09/07 07:25:42;;;;;;;8.13;7.32;;;23.20;99.90;;;;;;6106214;23;20056;-89
2023/09/07 07:28:07;;;;;;;8.75;7.80;;;23.10;99.90;;;;;;6128949;23;20075;-90
2023/09/07 07:30:38;;;;;;;9.90;8.07;;;23.30;99.90;;;;;;6081916;23;20089;-91
2023/09/07 07:33:04;;;;;;;8.90;8.10;;;23.30;99.90;;;;;;6105670;23;20022;-89
2023/09/07 07:35:32;;;;;;;9.02;8.13;;;23.50;99.90;;;;;;6082243;23;20017;-90
2023/09/07 07:37:58;;;;;;;8.23;7.35;;;23.60;99.90;;;;;;6082122;23;20367;-92
2023/09/07 07:40:24;;;;;;;8.88;7.97;;;23.60;99.90;;;;;;6105754;23;20072;-91
2023/09/07 07:42:52;;;;;;;11.32;8.02;;;23.70;99.90;;;;;;6106224;23;20021;-89
2023/09/07 07:45:21;;;;;;;8.40;7.60;;;23.70;99.90;;;;;;6106241;23;20371;-91
2023/09/07 07:47:53;;;;;;;9.27;7.60;;;23.60;99.90;;;;;;6130260;23;20018;-90
2023/09/07 07:50:20;;;;;;;7.90;7.10;;;23.90;99.90;;;;;;6110733;23;20029;-89
2023/09/07 07:52:47;;;;;;;10.15;7.90;;;24.00;99.90;;;;;;6082983;23;20071;-89
2023/09/07 07:55:14;;;;;;;10.05;7.53;;;24.10;99.90;;;;;;6057593;23;20014;-91
2023/09/07 07:57:40;;;;;;;7.50;6.72;;;24.20;99.90;;;;;;6082035;23;20398;-90
2023/09/07 08:00:06;;;;;;;7.82;7.13;;;24.30;99.90;;;;;;6057085;23;20013;-90
2023/09/07 08:02:32;;;;;;;7.75;6.70;;;24.40;99.90;;;;;;6058409;23;20013;-90
2023/09/07 08:04:58;;;;;;;7.60;6.85;;;24.60;99.90;;;;;;6104645;23;20010;-90
2023/09/07 08:07:25;;;;;;;8.98;6.65;;;24.70;99.90;;;;;;6083444;23;20020;-90
2023/09/07 08:09:51;;;;;;;7.43;6.65;;;24.70;99.90;;;;;;6104623;23;20021;-89
2023/09/07 08:12:17;;;;;;;7.95;6.28;;;24.80;99.90;;;;;;6081418;23;20020;-90
2023/09/07 08:14:43;;;;;;;7.45;6.68;;;25.00;99.90;;;;;;6103740;23;20018;-91
2023/09/07 08:17:09;;;;;;;6.50;5.90;;;25.10;99.90;;;;;;6056643;23;20147;-89
2023/09/07 08:19:35;;;;;;;8.95;6.55;;;25.10;99.90;;;;;;6103852;23;20014;-89
2023/09/07 08:22:03;;;;;;;8.00;6.97;;;25.20;99.90;;;;;;6104928;23;20009;-90
2023/09/07 08:24:29;;;;;;;8.23;6.50;;;25.40;99.90;;;;;;6081192;23;20320;-90
2023/09/07 08:26:57;;;;;;;7.15;6.45;;;25.50;99.90;;;;;;6081341;23;20056;-90
2023/09/07 08:29:26;;;;;;;7.25;6.53;;;25.60;99.90;;;;;;6057628;23;20010;-90
2023/09/07 08:31:53;;;;;;;8.05;6.82;;;25.70;99.90;;;;;;6105089;23;20041;-90
2023/09/07 08:34:20;;;;;;;10.27;7.32;;;25.80;99.90;;;;;;6104655;23;20013;-90
2023/09/07 08:36:49;;;;;;;7.45;6.63;;;25.80;99.90;;;;;;6081286;23;20402;-90
2023/09/07 08:39:16;;;;;;;10.93;6.63;;;25.80;99.90;;;;;;6104376;23;20731;-89
2023/09/07 08:41:44;;;;;;;8.90;6.47;;;25.90;99.90;;;;;;6057397;23;20017;-91
2023/09/07 08:44:10;;;;;;;8.57;6.50;;;26.10;99.90;;;;;;6080105;23;20477;-91
2023/09/07 08:46:37;;;;;;;7.57;6.78;;;26.20;99.90;;;;;;6105610;23;20040;-89
2023/09/07 08:49:05;;;;;;;7.13;6.43;;;26.40;99.90;;;;;;6104785;23;20013;-91
2023/09/07 08:51:31;;;;;;;7.28;6.32;;;26.50;99.90;;;;;;6105259;23;20013;-90
2023/09/07 08:53:58;;;;;;;7.10;6.15;;;26.50;99.90;;;;;;6080547;23;20076;-89
2023/09/07 08:56:25;;;;;;;6.97;6.28;;;26.70;99.90;;;;;;6080416;23;20016;-90
2023/09/07 08:58:51;;;;;;;6.78;6.07;;;26.70;99.90;;;;;;6081121;23;20018;-89
2023/09/07 09:01:17;;;;;;;6.80;6.10;;;26.90;99.90;;;;;;6056227;23;20064;-90
2023/09/07 09:03:43;;;;;;;7.45;5.97;;;26.90;99.90;;;;;;6079135;23;20088;-89
2023/09/07 09:06:10;;;;;;;6.45;5.85;;;27.00;99.90;;;;;;6104664;23;20049;-89
2023/09/07 09:08:50;;;;;;;6.90;5.53;;;27.20;99.90;;;;;;6104930;23;20603;-90
2023/09/07 09:11:17;;;;;;;6.20;5.57;;;27.30;99.90;;;;;;6128867;23;20048;-90
2023/09/07 09:13:43;;;;;;;6.15;5.25;;;27.40;99.90;;;;;;6081274;23;20415;-90
2023/09/07 09:16:10;;;;;;;6.47;5.20;;;27.50;99.90;;;;;;6104614;23;20028;-89
2023/09/07 09:18:36;;;;;;;6.00;5.38;;;27.60;99.90;;;;;;6080549;23;20474;-89
2023/09/07 09:21:02;;;;;;;6.00;5.20;;;27.70;99.90;;;;;;6106108;23;20014;-92
2023/09/07 09:23:33;;;;;;;7.70;5.43;;;27.80;99.90;;;;;;6130019;23;20018;-89
2023/09/07 09:26:00;;;;;;;5.10;4.60;;;27.90;99.90;;;;;;6129692;23;20089;-89
2023/09/07 09:28:31;;;;;;;5.75;5.15;;;28.10;99.90;;;;;;6104376;23;20506;-89
2023/09/07 09:30:58;;;;;;;8.50;5.50;;;28.20;99.90;;;;;;6103613;23;20025;-90
2023/09/07 09:33:24;;;;;;;5.78;5.20;;;28.30;99.90;;;;;;6080247;23;20056;-90
2023/09/07 09:35:54;;;;;;;6.28;4.90;;;28.40;99.90;;;;;;6081307;23;20092;-92
2023/09/07 09:38:20;;;;;;;6.82;5.50;;;28.60;99.90;;;;;;6104312;23;20033;-90
2023/09/07 09:40:46;;;;;;;6.13;4.80;;;28.70;99.90;;;;;;6105102;23;20347;-90
2023/09/07 09:43:14;;;;;;;7.20;5.07;;;28.90;99.90;;;;;;6128561;23;20084;-91
2023/09/07 09:45:40;;;;;;;6.03;4.82;;;29.00;99.90;;;;;;6080514;23;20013;-91
2023/09/07 09:48:06;;;;;;;7.65;5.25;;;29.40;99.90;;;;;;6104552;23;20055;-91
2023/09/07 09:50:37;;;;;;;6.00;5.47;;;29.60;99.90;;;;;;6103664;23;20017;-90
2023/09/07 09:53:09;;;;;;;5.55;5.05;;;29.90;99.90;;;;;;6101820;23;20049;-90
2023/09/07 09:55:35;;;;;;;5.43;4.93;;;30.00;99.90;;;;;;6105005;23;20024;-92
2023/09/07 09:58:01;;;;;;;8.15;5.30;;;30.20;99.90;;;;;;6081379;23;20010;-90
2023/09/07 10:00:29;;;;;;;5.75;4.30;;;30.30;99.90;;;;;;6105775;23;20014;-92
2023/09/07 10:03:15;;;;;;;5.03;4.30;;;30.40;99.90;;;;;;6104959;23;20017;-90
2023/09/07 10:05:44;;;;;;;6.80;4.45;;;30.50;99.90;;;;;;6081551;23;20009;-92
2023/09/07 10:08:13;;;;;;;4.97;4.53;;;30.70;99.90;;;;;;6103994;23;20028;-91
2023/09/07 10:10:41;;;;;;;5.18;4.15;;;30.80;98.30;;;;;;6081394;23;20077;-88
2023/09/07 10:13:07;;;;;;;5.88;3.95;;;30.90;70.20;;;;;;6081750;23;20017;-89
2023/09/07 10:15:33;;;;;;;6.93;4.05;;;30.70;26.00;;;;;;6105184;23;20036;-91
2023/09/07 10:18:16;;;;;;;4.25;3.85;;;30.70;18.50;;;;;;6081460;23;20476;-89
2023/09/07 10:20:58;;;;;;;4.72;4.22;;;30.60;6.60;;;;;;6105130;23;20343;-90
2023/09/07 10:23:42;;;;;;;5.00;4.22;;;30.90;1.30;;;;;;6105198;23;20010;-92
2023/09/07 10:26:18;;;;;;;5.50;3.92;;;30.90;1.00;;;;;;6080918;23;20032;-90
2023/09/07 10:28:45;;;;;;;4.72;4.13;;;31.20;7.30;;;;;;6106479;23;20017;-91
2023/09/07 10:31:21;;;;;;;4.20;3.80;;;31.40;1.00;;;;;;6083030;23;20498;-90
2023/09/07 10:33:48;;;;;;;5.63;3.95;;;31.40;1.00;;;;;;6106804;23;20128;-91
2023/09/07 10:36:22;;;;;;;6.28;4.22;;;31.00;1.00;;;;;;6107464;23;20021;-91
2023/09/07 10:38:56;;;;;;;4.80;4.07;;;30.90;1.00;;;;;;6107585;23;20017;-90
2023/09/07 10:41:22;;;;;;;5.78;4.00;;;31.20;1.00;;;;;;6082566;23;20014;-90
2023/09/07 10:43:50;;;;;;;5.18;4.30;;;31.10;1.00;;;;;;6082972;23;20346;-89
2023/09/07 10:46:20;;;;;;;5.13;3.92;;;31.20;1.00;;;;;;6082512;23;20016;-90
2023/09/07 10:48:48;;;;;;;4.13;3.75;;;31.20;1.00;;;;;;6131388;23;20009;-91
2023/09/07 10:51:14;;;;;;;3.78;3.40;;;31.30;1.00;;;;;;6106985;23;20165;-90
2023/09/07 10:53:39;;;;;;;4.53;3.83;;;31.50;1.00;;;;;;6107169;23;20097;-91
2023/09/07 10:56:05;;;;;;;4.53;4.13;;;31.50;1.00;;;;;;6082879;23;20014;-91
2023/09/07 10:58:33;;;;;;;5.85;4.10;;;31.70;1.00;;;;;;6106166;23;20033;-89
2023/09/07 11:01:00;;;;;;;7.82;4.25;;;31.80;1.00;;;;;;6107358;23;20017;-91
2023/09/07 11:03:28;;;;;;;6.43;4.25;;;31.90;1.00;;;;;;6106154;23;20720;-91
2023/09/07 11:06:19;;;;;;;4.82;3.67;;;31.90;1.00;;;;;;6082521;23;20451;-90
2023/09/07 11:08:47;;;;;;;3.88;3.58;;;32.00;99.90;;;;;;6108989;23;20729;-90
2023/09/07 11:11:15;;;;;;;4.18;3.60;;;31.90;99.90;;;;;;6106436;23;20113;-92
2023/09/07 11:13:42;;;;;;;3.97;3.58;;;31.70;99.90;;;;;;6059010;23;20024;-89
2023/09/07 11:16:09;;;;;;;4.93;3.42;;;31.90;99.90;;;;;;6082771;23;20338;-91
2023/09/07 11:18:35;;;;;;;5.00;3.90;;;31.90;99.90;;;;;;6107070;23;20049;-91
2023/09/07 11:21:07;;;;;;;4.25;3.70;;;31.70;99.90;;;;;;6106804;23;20014;-90
2023/09/07 11:23:39;;;;;;;3.75;3.45;;;31.80;99.90;;;;;;6082739;23;20009;-91
2023/09/07 11:26:05;;;;;;;4.60;3.90;;;31.90;99.90;;;;;;6083288;23;20391;-90
2023/09/07 11:28:31;;;;;;;4.13;3.60;;;32.20;99.90;;;;;;6130040;23;20056;-90
2023/09/07 11:30:58;;;;;;;5.75;4.20;;;32.00;99.90;;;;;;6106527;23;20060;-89
2023/09/07 11:33:25;;;;;;;8.18;3.88;;;32.20;99.90;;;;;;6106439;23;20021;-90
2023/09/07 11:35:56;;;;;;;8.13;3.80;;;32.50;99.90;;;;;;6083585;23;20092;-90
2023/09/07 11:38:22;;;;;;;3.90;3.60;;;32.30;99.90;;;;;;6082907;23;20025;-90
2023/09/07 11:40:48;;;;;;;4.10;3.70;;;32.00;99.90;;;;;;6106338;23;20021;-91
2023/09/07 11:43:15;;;;;;;4.53;3.55;;;32.20;99.90;;;;;;6106741;23;20465;-90
2023/09/07 11:45:45;;;;;;;3.83;3.47;;;32.10;99.90;;;;;;6082379;23;20316;-90
2023/09/07 11:48:11;;;;;;;5.93;3.90;;;32.30;99.90;;;;;;6082727;23;20016;-90
2023/09/07 11:50:38;;;;;;;4.43;3.85;;;32.40;99.90;;;;;;6106027;23;20048;-91
2023/09/07 11:53:04;;;;;;;6.32;3.72;;;32.20;99.90;;;;;;6106522;23;20018;-91
2023/09/07 11:55:31;;;;;;;5.40;4.10;;;32.30;99.90;;;;;;6105936;23;20017;-91
2023/09/07 11:57:57;;;;;;;5.75;4.18;;;32.30;99.90;;;;;;6058394;23;20017;-91
2023/09/07 12:00:23;;;;;;;4.80;3.85;;;32.20;99.90;;;;;;6081696;23;20025;-91
2023/09/07 12:02:50;;;;;;;4.50;4.10;;;32.00;99.90;;;;;;6106504;23;20347;-90
2023/09/07 12:05:17;;;;;;;4.75;3.88;;;32.00;99.90;;;;;;6058390;23;20005;-92
2023/09/07 12:07:43;;;;;;;5.57;3.92;;;31.90;99.90;;;;;;6082809;23;20088;-91
2023/09/07 12:10:10;;;;;;;6.35;3.92;;;31.80;99.90;;;;;;6058150;23;20603;-91
2023/09/07 12:12:37;;;;;;;4.63;3.70;;;31.70;99.90;;;;;;6106464;23;20320;-90
2023/09/07 12:15:03;;;;;;;5.05;3.97;;;31.70;99.90;;;;;;6081832;23;20017;-91
2023/09/07 12:17:31;;;;;;;4.97;3.75;;;31.80;99.90;;;;;;6105378;23;20028;-92
2023/09/07 12:19:57;;;;;;;5.55;4.50;;;31.70;99.90;;;;;;6081808;23;20100;-90
2023/09/07 12:22:24;;;;;;;4.88;4.30;;;31.70;99.90;;;;;;6106015;23;20018;-91
2023/09/07 12:24:49;;;;;;;5.57;3.90;;;31.60;99.90;;;;;;6082854;23;20009;-91
2023/09/07 12:27:15;;;;;;;4.68;4.15;;;31.70;99.90;;;;;;6128982;23;20713;-90
2023/09/07 12:29:42;;;;;;;4.35;3.95;;;31.60;99.90;;;;;;6104692;23;20056;-92
2023/09/07 12:32:07;;;;;;;4.95;4.55;;;31.60;99.90;;;;;;6103788;23;20096;-90
2023/09/07 12:34:33;;;;;;;4.68;4.13;;;31.50;99.90;;;;;;6080166;23;20489;-91
2023/09/07 12:36:59;;;;;;;6.35;4.30;;;31.50;99.90;;;;;;6104344;23;20045;-90
2023/09/07 12:39:25;;;;;;;4.32;3.90;;;31.50;99.90;;;;;;6129636;23;20559;-91
2023/09/07 12:41:51;;;;;;;4.15;3.75;;;31.70;99.90;;;;;;6105615;23;20016;-91
2023/09/07 12:44:18;;;;;;;4.88;4.32;;;31.60;99.90;;;;;;6082229;23;20040;-91